Time;durP1;ratioP1;P1;durP2;ratioP2;P2;SDS_P1;SDS_P2;PMS_P1;PMS_P2;Temp;Humidity;BMP_temperature;BMP_pressure;BME280_temperature;BME280_humidity;BME280_pressure;Samples;Min_cycle;Max_cycle;Signal;HPM_P1;HPM_P2
2023/11/29 00:01:40;;;;;;;6.40;5.90;;;;;;;;;;5057770;28;20417;-79
2023/11/29 00:04:06;;;;;;;6.70;6.20;;;;;;;;;;5057543;28;20530;-79
2023/11/29 00:06:32;;;;;;;6.82;6.32;;;;;;;;;;5057727;28;20886;-79
2023/11/29 00:08:58;;;;;;;6.80;6.30;;;;;;;;;;5057586;28;20504;-79
2023/11/29 00:11:25;;;;;;;6.93;6.43;;;;;;;;;;5057653;28;20464;-79
2023/11/29 00:13:51;;;;;;;7.65;6.93;;;;;;;;;;5057836;28;20784;-79
2023/11/29 00:16:17;;;;;;;7.40;6.80;;;;;;;;;;5057639;28;20439;-79
2023/11/29 00:18:44;;;;;;;6.93;6.33;;;;;;;;;;5056895;28;20377;-79
2023/11/29 00:21:10;;;;;;;6.63;6.13;;;;;;;;;;5070400;28;20455;-79
2023/11/29 00:23:37;;;;;;;7.47;6.88;;;;;;;;;;5077766;28;20371;-79
2023/11/29 00:26:03;;;;;;;7.03;6.50;;;;;;;;;;5077233;28;20376;-79
2023/11/29 00:28:29;;;;;;;6.95;6.45;;;;;;;;;;5076712;28;20402;-79
2023/11/29 00:30:55;;;;;;;6.63;6.13;;;;;;;;;;5076932;28;20479;-79
2023/11/29 00:33:21;;;;;;;6.72;6.22;;;;;;;;;;5076606;28;20404;-79
2023/11/29 00:35:47;;;;;;;7.40;6.80;;;;;;;;;;5077233;28;20867;-79
2023/11/29 00:38:13;;;;;;;7.50;6.90;;;;;;;;;;5073336;28;20371;-79
2023/11/29 00:40:39;;;;;;;7.30;6.70;;;;;;;;;;5077372;28;20395;-79
2023/11/29 00:43:05;;;;;;;7.57;6.93;;;;;;;;;;5077375;28;20380;-79
2023/11/29 00:45:31;;;;;;;7.27;6.67;;;;;;;;;;5076783;28;20391;-79
2023/11/29 00:47:57;;;;;;;7.07;6.47;;;;;;;;;;5076634;28;20423;-79
2023/11/29 00:50:23;;;;;;;6.00;5.60;;;;;;;;;;5076462;28;20912;-79
2023/11/29 00:52:48;;;;;;;6.10;5.60;;;;;;;;;;5076674;28;20398;-79
2023/11/29 00:55:14;;;;;;;5.97;5.47;;;;;;;;;;5076900;28;20375;-80
2023/11/29 00:57:40;;;;;;;5.50;5.10;;;;;;;;;;5074021;28;20455;-79
2023/11/29 01:00:07;;;;;;;5.55;5.13;;;;;;;;;;5067976;28;20475;-79
2023/11/29 01:02:33;;;;;;;5.50;5.10;;;;;;;;;;5076347;28;20392;-79
2023/11/29 01:04:59;;;;;;;5.70;5.28;;;;;;;;;;5076711;28;20376;-79
2023/11/29 01:07:25;;;;;;;5.80;5.30;;;;;;;;;;5076898;28;20378;-80
2023/11/29 01:09:51;;;;;;;5.93;5.43;;;;;;;;;;5076664;28;20411;-79
2023/11/29 01:12:17;;;;;;;6.30;5.70;;;;;;;;;;5075824;28;20384;-79
2023/11/29 01:14:43;;;;;;;5.50;5.10;;;;;;;;;;5076101;28;20476;-79
2023/11/29 01:17:08;;;;;;;5.13;4.72;;;;;;;;;;5076066;28;20752;-79
2023/11/29 01:19:38;;;;;;;5.47;4.97;;;;;;;;;;5076274;28;20391;-79
2023/11/29 01:22:04;;;;;;;5.32;4.93;;;;;;;;;;5076140;28;20444;-80
2023/11/29 01:24:30;;;;;;;5.07;4.68;;;;;;;;;;5076323;28;20433;-80
2023/11/29 01:26:56;;;;;;;5.03;4.70;;;;;;;;;;5076353;28;20392;-79
2023/11/29 01:29:22;;;;;;;5.10;4.70;;;;;;;;;;5077499;28;20411;-79
2023/11/29 01:31:48;;;;;;;5.20;4.80;;;;;;;;;;5080269;28;20375;-79
2023/11/29 01:34:14;;;;;;;5.53;5.13;;;;;;;;;;5080612;28;20379;-79
2023/11/29 01:36:43;;;;;;;5.53;5.13;;;;;;;;;;5079997;28;20382;-79
2023/11/29 01:39:08;;;;;;;5.15;4.68;;;;;;;;;;5080167;28;20888;-79
2023/11/29 01:41:34;;;;;;;5.30;4.90;;;;;;;;;;5080596;28;20411;-79
2023/11/29 01:44:00;;;;;;;5.38;4.97;;;;;;;;;;5080421;28;20379;-79
2023/11/29 01:46:28;;;;;;;4.93;4.60;;;;;;;;;;5079852;28;20499;-79
2023/11/29 01:48:54;;;;;;;5.50;5.00;;;;;;;;;;5088297;28;20993;-79
2023/11/29 01:51:21;;;;;;;5.07;4.68;;;;;;;;;;5090597;28;20378;-79
2023/11/29 01:53:47;;;;;;;5.20;4.80;;;;;;;;;;5088606;28;20876;-79
2023/11/29 01:56:14;;;;;;;5.23;4.83;;;;;;;;;;5090339;28;20794;-79
2023/11/29 01:58:40;;;;;;;5.50;5.10;;;;;;;;;;5089788;28;20383;-79
2023/11/29 02:01:07;;;;;;;5.32;4.93;;;;;;;;;;5091474;28;20940;-79
2023/11/29 02:03:33;;;;;;;6.05;5.55;;;;;;;;;;5074368;28;20438;-79
2023/11/29 02:05:59;;;;;;;6.50;5.90;;;;;;;;;;5088265;28;20380;-79
2023/11/29 02:08:25;;;;;;;6.53;5.97;;;;;;;;;;5091719;28;20385;-79
2023/11/29 02:10:51;;;;;;;6.63;6.07;;;;;;;;;;5090031;28;20397;-79
2023/11/29 02:13:17;;;;;;;6.85;6.28;;;;;;;;;;5093329;28;20411;-79
2023/11/29 02:15:43;;;;;;;6.68;6.07;;;;;;;;;;5087266;28;20374;-79
2023/11/29 02:18:09;;;;;;;7.32;6.63;;;;;;;;;;5089337;28;20382;-79
2023/11/29 02:20:35;;;;;;;7.85;7.15;;;;;;;;;;5090755;28;20383;-79
2023/11/29 02:23:04;;;;;;;7.90;7.20;;;;;;;;;;5092725;28;20438;-79
2023/11/29 02:25:30;;;;;;;7.20;6.60;;;;;;;;;;5086943;28;20426;-79
2023/11/29 02:27:59;;;;;;;6.55;5.90;;;;;;;;;;5090867;28;20380;-79
2023/11/29 02:30:25;;;;;;;7.20;6.60;;;;;;;;;;5087284;28;20523;-79
2023/11/29 02:32:51;;;;;;;6.97;6.38;;;;;;;;;;5091803;28;20398;-79
2023/11/29 02:35:17;;;;;;;8.10;7.40;;;;;;;;;;5090530;28;20431;-79
2023/11/29 02:37:43;;;;;;;7.72;7.03;;;;;;;;;;5088779;28;20376;-79
2023/11/29 02:40:10;;;;;;;7.55;6.95;;;;;;;;;;5085976;28;20467;-79
2023/11/29 02:42:36;;;;;;;6.60;6.00;;;;;;;;;;5089886;28;20371;-79
2023/11/29 02:45:02;;;;;;;6.90;6.30;;;;;;;;;;5091810;28;20470;-79
2023/11/29 02:47:28;;;;;;;6.47;5.97;;;;;;;;;;5090935;28;20751;-79
2023/11/29 02:49:54;;;;;;;6.70;6.20;;;;;;;;;;5089791;28;20400;-79
2023/11/29 02:52:20;;;;;;;6.88;6.28;;;;;;;;;;5090536;28;20872;-79
2023/11/29 02:54:46;;;;;;;6.60;6.00;;;;;;;;;;5089984;28;20449;-79
2023/11/29 02:57:12;;;;;;;6.22;5.72;;;;;;;;;;5088026;28;20374;-79
2023/11/29 02:59:38;;;;;;;6.70;6.10;;;;;;;;;;5086087;28;20405;-79
2023/11/29 03:02:04;;;;;;;6.13;5.63;;;;;;;;;;5085829;28;20864;-79
2023/11/29 03:04:30;;;;;;;6.25;5.75;;;;;;;;;;5088553;28;20382;-79
2023/11/29 03:06:56;;;;;;;5.70;5.30;;;;;;;;;;5087354;28;20569;-79
2023/11/29 03:09:22;;;;;;;6.10;5.60;;;;;;;;;;5086764;28;20405;-79
2023/11/29 03:11:48;;;;;;;5.40;5.00;;;;;;;;;;5091169;28;20412;-79
2023/11/29 03:14:14;;;;;;;6.30;5.80;;;;;;;;;;5086001;28;20398;-79
2023/11/29 03:16:40;;;;;;;6.20;5.60;;;;;;;;;;5087803;28;20864;-79
2023/11/29 03:19:06;;;;;;;5.28;4.88;;;;;;;;;;5088654;28;20389;-79
2023/11/29 03:21:33;;;;;;;6.13;5.55;;;;;;;;;;5086037;28;20453;-79
2023/11/29 03:23:59;;;;;;;5.40;5.00;;;;;;;;;;5088270;28;20758;-79
2023/11/29 03:26:25;;;;;;;5.72;5.32;;;;;;;;;;5085527;28;20420;-79
2023/11/29 03:28:51;;;;;;;5.80;5.30;;;;;;;;;;5076865;28;20777;-79
2023/11/29 03:31:16;;;;;;;5.93;5.43;;;;;;;;;;5089479;28;20381;-79
2023/11/29 03:33:42;;;;;;;6.07;5.57;;;;;;;;;;5097148;28;20861;-79
2023/11/29 03:36:09;;;;;;;6.05;5.55;;;;;;;;;;5097336;28;20370;-79
2023/11/29 03:38:35;;;;;;;5.53;5.03;;;;;;;;;;5095136;28;20458;-79
2023/11/29 03:41:01;;;;;;;6.20;5.60;;;;;;;;;;5095928;28;20414;-79
2023/11/29 03:43:26;;;;;;;5.70;5.20;;;;;;;;;;5082417;28;20374;-79
2023/11/29 03:45:53;;;;;;;5.75;5.32;;;;;;;;;;5086204;28;20813;-79
2023/11/29 03:48:19;;;;;;;5.60;5.10;;;;;;;;;;5094456;28;20890;-79
2023/11/29 03:50:45;;;;;;;5.35;4.95;;;;;;;;;;5097541;28;20897;-79
2023/11/29 03:53:11;;;;;;;5.22;4.82;;;;;;;;;;5096528;28;20374;-79
2023/11/29 03:55:38;;;;;;;5.70;5.20;;;;;;;;;;5097615;28;20382;-79
2023/11/29 03:58:04;;;;;;;5.20;4.80;;;;;;;;;;5097561;28;20384;-79
2023/11/29 04:00:30;;;;;;;5.70;5.20;;;;;;;;;;5081521;28;20390;-79
2023/11/29 04:02:56;;;;;;;5.85;5.25;;;;;;;;;;5076583;28;20379;-79
2023/11/29 04:05:23;;;;;;;5.13;4.68;;;;;;;;;;5093309;28;20390;-79
2023/11/29 04:07:49;;;;;;;5.97;5.47;;;;;;;;;;5093992;28;20386;-79
2023/11/29 04:10:17;;;;;;;5.37;4.97;;;;;;;;;;5076377;28;20410;-79
2023/11/29 04:12:43;;;;;;;5.90;5.40;;;;;;;;;;5090414;28;20374;-79
2023/11/29 04:15:09;;;;;;;6.18;5.57;;;;;;;;;;5097020;28;20385;-79
2023/11/29 04:17:35;;;;;;;6.07;5.57;;;;;;;;;;5096683;28;20382;-79
2023/11/29 04:20:01;;;;;;;5.78;5.32;;;;;;;;;;5088098;28;20413;-79
2023/11/29 04:22:27;;;;;;;5.60;5.10;;;;;;;;;;5080287;28;20867;-79
2023/11/29 04:24:53;;;;;;;6.05;5.50;;;;;;;;;;5096500;28;20389;-79
2023/11/29 04:27:20;;;;;;;5.95;5.45;;;;;;;;;;5085044;28;20375;-79
2023/11/29 04:29:46;;;;;;;6.35;5.85;;;;;;;;;;5076228;28;20456;-79
2023/11/29 04:32:12;;;;;;;6.55;5.97;;;;;;;;;;5077849;28;20372;-79
2023/11/29 04:34:38;;;;;;;7.00;6.40;;;;;;;;;;5096326;28;20369;-79
2023/11/29 04:37:04;;;;;;;7.40;6.80;;;;;;;;;;5080358;28;20859;-79
2023/11/29 04:39:30;;;;;;;8.02;7.22;;;;;;;;;;5096069;28;20374;-79
2023/11/29 04:41:56;;;;;;;7.65;6.95;;;;;;;;;;5096185;28;20374;-79
2023/11/29 04:44:22;;;;;;;7.72;7.03;;;;;;;;;;5096374;28;20465;-79
2023/11/29 04:46:48;;;;;;;7.60;6.90;;;;;;;;;;5064516;28;20420;-79
2023/11/29 04:49:14;;;;;;;7.68;6.88;;;;;;;;;;5083009;28;20943;-80
2023/11/29 04:51:42;;;;;;;7.75;7.05;;;;;;;;;;5096587;28;20573;-79
2023/11/29 04:54:08;;;;;;;7.20;6.60;;;;;;;;;;5094890;28;20868;-79
2023/11/29 04:56:34;;;;;;;7.68;6.97;;;;;;;;;;5075606;28;20372;-79
2023/11/29 04:59:00;;;;;;;7.38;6.68;;;;;;;;;;5078009;28;20888;-79
2023/11/29 05:01:26;;;;;;;8.13;7.28;;;;;;;;;;5095484;28;20398;-79
2023/11/29 05:03:52;;;;;;;7.63;6.80;;;;;;;;;;5083368;28;20379;-79
2023/11/29 05:06:20;;;;;;;7.82;7.13;;;;;;;;;;5088764;28;20886;-79
2023/11/29 05:08:45;;;;;;;7.63;6.93;;;;;;;;;;5095314;28;20855;-79
2023/11/29 05:11:12;;;;;;;7.05;6.43;;;;;;;;;;5091371;28;20448;-79
2023/11/29 05:13:37;;;;;;;7.20;6.60;;;;;;;;;;5082033;28;20371;-79
2023/11/29 05:16:03;;;;;;;7.07;6.47;;;;;;;;;;5075322;28;20695;-79
2023/11/29 05:18:29;;;;;;;8.50;7.28;;;;;;;;;;5095253;28;20374;-79
2023/11/29 05:20:57;;;;;;;7.35;6.68;;;;;;;;;;5074031;28;20379;-79
2023/11/29 05:23:23;;;;;;;7.55;6.93;;;;;;;;;;5074654;28;20422;-79
2023/11/29 05:25:50;;;;;;;8.27;7.57;;;;;;;;;;5074196;28;20410;-79
2023/11/29 05:28:16;;;;;;;7.35;6.75;;;;;;;;;;5074600;28;20474;-79
2023/11/29 05:30:42;;;;;;;7.57;6.97;;;;;;;;;;5068250;28;20864;-80
2023/11/29 05:33:08;;;;;;;7.05;6.45;;;;;;;;;;5065919;28;20425;-80
2023/11/29 05:35:34;;;;;;;7.15;6.55;;;;;;;;;;5075165;28;20856;-80
2023/11/29 05:38:00;;;;;;;7.57;6.88;;;;;;;;;;5069609;28;20397;-79
2023/11/29 05:40:26;;;;;;;7.32;6.72;;;;;;;;;;5066086;28;20376;-79
2023/11/29 05:42:52;;;;;;;6.65;6.15;;;;;;;;;;5055727;28;20384;-80
2023/11/29 05:45:18;;;;;;;6.57;6.07;;;;;;;;;;5064492;28;20787;-80
2023/11/29 05:47:44;;;;;;;6.70;6.10;;;;;;;;;;5065661;28;20412;-80
2023/11/29 05:50:11;;;;;;;6.68;6.13;;;;;;;;;;5063536;28;20401;-80
2023/11/29 05:52:37;;;;;;;6.28;5.68;;;;;;;;;;5066377;28;20372;-80
2023/11/29 05:55:03;;;;;;;6.63;6.03;;;;;;;;;;5075294;28;20403;-80
2023/11/29 05:57:29;;;;;;;6.40;5.82;;;;;;;;;;5057106;28;20380;-80
2023/11/29 05:59:56;;;;;;;6.45;5.93;;;;;;;;;;5075652;28;20433;-80
2023/11/29 06:02:22;;;;;;;6.90;6.30;;;;;;;;;;5075789;28;20410;-80
2023/11/29 06:04:49;;;;;;;6.63;6.07;;;;;;;;;;5075044;28;20978;-80
2023/11/29 06:07:15;;;;;;;6.13;5.63;;;;;;;;;;5075258;28;20474;-80
2023/11/29 06:09:41;;;;;;;6.40;5.90;;;;;;;;;;5075299;28;20411;-80
2023/11/29 06:12:08;;;;;;;6.80;6.20;;;;;;;;;;5075263;28;20382;-80
2023/11/29 06:14:34;;;;;;;6.57;5.97;;;;;;;;;;5075234;28;20379;-80
2023/11/29 06:17:00;;;;;;;6.50;5.90;;;;;;;;;;5079107;28;20429;-80
2023/11/29 06:19:26;;;;;;;6.65;6.15;;;;;;;;;;5079144;28;20794;-80
2023/11/29 06:21:54;;;;;;;8.05;7.35;;;;;;;;;;5078704;28;20399;-80
2023/11/29 06:24:20;;;;;;;7.53;6.93;;;;;;;;;;5078972;28;20765;-79
2023/11/29 06:26:46;;;;;;;7.20;6.60;;;;;;;;;;5079002;28;20412;-78
2023/11/29 06:29:12;;;;;;;6.22;5.72;;;;;;;;;;5078060;28;20414;-80
2023/11/29 06:31:38;;;;;;;7.00;6.40;;;;;;;;;;5078446;28;20380;-80
2023/11/29 06:34:07;;;;;;;6.50;6.00;;;;;;;;;;5078694;28;20837;-80
2023/11/29 06:36:34;;;;;;;6.80;6.20;;;;;;;;;;5078362;28;20412;-79
2023/11/29 06:39:00;;;;;;;6.32;5.82;;;;;;;;;;5078744;28;20379;-80
2023/11/29 06:41:26;;;;;;;6.70;6.10;;;;;;;;;;5076713;28;20375;-79
2023/11/29 06:43:52;;;;;;;6.65;6.13;;;;;;;;;;5076044;28;20380;-79
2023/11/29 06:46:19;;;;;;;6.85;6.25;;;;;;;;;;5077786;28;20492;-79
2023/11/29 06:48:45;;;;;;;6.78;6.28;;;;;;;;;;5078550;28;20384;-80
2023/11/29 06:51:11;;;;;;;6.95;6.35;;;;;;;;;;5078339;28;20505;-79
2023/11/29 06:53:37;;;;;;;6.72;6.22;;;;;;;;;;5078220;28;20379;-79
2023/11/29 06:56:04;;;;;;;7.68;7.07;;;;;;;;;;5078333;28;20375;-79
2023/11/29 06:58:30;;;;;;;7.70;7.00;;;;;;;;;;5077787;28;20419;-79
2023/11/29 07:00:56;;;;;;;8.40;7.70;;;;;;;;;;5078010;28;20376;-79
2023/11/29 07:03:26;;;;;;;7.75;7.05;;;;;;;;;;5077421;28;20411;-80
2023/11/29 07:05:52;;;;;;;7.50;6.90;;;;;;;;;;5077630;28;20881;-80
2023/11/29 07:08:18;;;;;;;7.68;7.07;;;;;;;;;;5077659;28;20440;-79
2023/11/29 07:10:44;;;;;;;7.28;6.60;;;;;;;;;;5077581;28;20877;-80
2023/11/29 07:13:12;;;;;;;7.38;6.70;;;;;;;;;;5077826;28;20395;-80
2023/11/29 07:15:38;;;;;;;7.43;6.82;;;;;;;;;;5077760;28;20382;-80
2023/11/29 07:18:04;;;;;;;7.57;6.97;;;;;;;;;;5077561;28;20375;-80
2023/11/29 07:20:30;;;;;;;7.60;6.90;;;;;;;;;;5077330;28;20383;-80
2023/11/29 07:22:56;;;;;;;7.65;6.97;;;;;;;;;;5077570;28;20376;-80
2023/11/29 07:25:22;;;;;;;7.60;7.00;;;;;;;;;;5077739;28;20380;-80
2023/11/29 07:27:48;;;;;;;7.65;7.05;;;;;;;;;;5075859;28;20392;-81
2023/11/29 07:30:14;;;;;;;7.90;7.20;;;;;;;;;;5077507;28;20400;-80
2023/11/29 07:32:42;;;;;;;7.95;7.25;;;;;;;;;;5077038;28;20380;-80
2023/11/29 07:35:08;;;;;;;7.45;6.85;;;;;;;;;;5077729;28;20380;-80
2023/11/29 07:37:34;;;;;;;7.03;6.43;;;;;;;;;;5077388;28;20380;-79
2023/11/29 07:40:00;;;;;;;7.22;6.63;;;;;;;;;;5076966;28;20380;-80
2023/11/29 07:42:26;;;;;;;7.15;6.55;;;;;;;;;;5076896;28;20402;-79
2023/11/29 07:44:52;;;;;;;6.95;6.35;;;;;;;;;;5076786;28;20476;-79
2023/11/29 07:47:18;;;;;;;6.70;6.10;;;;;;;;;;5075664;28;20469;-79
2023/11/29 07:49:44;;;;;;;6.95;6.30;;;;;;;;;;5076245;28;20400;-79
2023/11/29 07:52:10;;;;;;;6.30;5.80;;;;;;;;;;5076786;28;20372;-79
2023/11/29 07:54:36;;;;;;;6.63;6.05;;;;;;;;;;5076804;28;20436;-79
2023/11/29 07:57:03;;;;;;;6.47;5.95;;;;;;;;;;5058818;28;20951;-80
2023/11/29 07:59:29;;;;;;;6.32;5.80;;;;;;;;;;5058997;28;20779;-80
2023/11/29 08:01:55;;;;;;;6.30;5.33;;;;;;;;;;5076994;28;20391;-80
2023/11/29 08:04:21;;;;;;;6.10;5.60;;;;;;;;;;5076609;28;20707;-80
2023/11/29 08:06:47;;;;;;;6.38;5.78;;;;;;;;;;5076745;28;20471;-80
2023/11/29 08:09:13;;;;;;;6.18;5.68;;;;;;;;;;5076994;28;20954;-79
2023/11/29 08:11:39;;;;;;;5.95;5.28;;;;;;;;;;5075683;28;20375;-79
2023/11/29 08:14:06;;;;;;;6.10;5.60;;;;;;;;;;5076608;28;20729;-82
2023/11/29 08:16:32;;;;;;;6.35;5.78;;;;;;;;;;5080355;28;20772;-81
2023/11/29 08:18:58;;;;;;;6.45;5.90;;;;;;;;;;5079395;28;20422;-81
2023/11/29 08:21:25;;;;;;;6.15;5.65;;;;;;;;;;5079164;28;20376;-82
2023/11/29 08:23:51;;;;;;;5.55;5.05;;;;;;;;;;5079995;28;20383;-81
2023/11/29 08:26:17;;;;;;;5.50;5.10;;;;;;;;;;5079506;28;20784;-81
2023/11/29 08:28:44;;;;;;;4.90;4.50;;;;;;;;;;5079315;28;20419;-82
2023/11/29 08:31:10;;;;;;;5.30;4.90;;;;;;;;;;5079325;28;20400;-81
2023/11/29 08:33:36;;;;;;;5.50;5.00;;;;;;;;;;5080018;28;20372;-81
2023/11/29 08:36:03;;;;;;;5.23;4.73;;;;;;;;;;5078965;28;20768;-81
2023/11/29 08:38:29;;;;;;;5.30;4.90;;;;;;;;;;5080152;28;20410;-81
2023/11/29 08:40:55;;;;;;;5.07;4.68;;;;;;;;;;5079264;28;20383;-81
2023/11/29 08:43:21;;;;;;;4.47;4.18;;;;;;;;;;5079283;28;20806;-81
2023/11/29 08:45:51;;;;;;;4.57;4.18;;;;;;;;;;5078456;28;20415;-81
2023/11/29 08:48:17;;;;;;;4.85;4.47;;;;;;;;;;5078364;28;20421;-81
2023/11/29 08:50:43;;;;;;;4.40;4.10;;;;;;;;;;5042102;28;20846;-81
2023/11/29 08:53:09;;;;;;;4.65;4.32;;;;;;;;;;5058346;28;20413;-81
2023/11/29 08:55:35;;;;;;;5.00;4.32;;;;;;;;;;5058937;28;20379;-81
2023/11/29 08:58:02;;;;;;;4.60;4.18;;;;;;;;;;5058101;28;20772;-81
2023/11/29 09:00:28;;;;;;;4.75;4.35;;;;;;;;;;5058309;28;20386;-81
2023/11/29 09:02:55;;;;;;;4.43;4.05;;;;;;;;;;5058845;28;20463;-81
2023/11/29 09:05:23;;;;;;;4.28;3.97;;;;;;;;;;5057890;28;20851;-81
2023/11/29 09:07:49;;;;;;;4.13;3.83;;;;;;;;;;5057887;28;20391;-81
2023/11/29 09:10:15;;;;;;;4.13;3.83;;;;;;;;;;5058336;28;20435;-81
2023/11/29 09:12:41;;;;;;;4.10;3.80;;;;;;;;;;5057249;28;20369;-81
2023/11/29 09:15:08;;;;;;;4.20;3.90;;;;;;;;;;5058103;28;20884;-81
2023/11/29 09:17:34;;;;;;;4.57;4.28;;;;;;;;;;5057001;28;20381;-81
2023/11/29 09:20:00;;;;;;;4.68;4.35;;;;;;;;;;5057666;28;20389;-81
2023/11/29 09:22:26;;;;;;;4.45;4.05;;;;;;;;;;5057956;28;20866;-81
2023/11/29 09:24:52;;;;;;;4.50;4.10;;;;;;;;;;5057700;28;20392;-81
2023/11/29 09:27:19;;;;;;;4.30;3.90;;;;;;;;;;5057411;28;20381;-81
2023/11/29 09:29:45;;;;;;;4.40;4.00;;;;;;;;;;5057208;28;20441;-81
2023/11/29 09:32:11;;;;;;;4.65;4.13;;;;;;;;;;5056672;28;20851;-81
2023/11/29 09:34:37;;;;;;;4.10;3.80;;;;;;;;;;5056767;28;21296;-81
2023/11/29 09:37:04;;;;;;;4.10;3.80;;;;;;;;;;5057365;28;20373;-81
2023/11/29 09:39:30;;;;;;;4.10;3.80;;;;;;;;;;5057137;28;20450;-81
2023/11/29 09:41:57;;;;;;;4.57;4.17;;;;;;;;;;5057271;28;20778;-81
2023/11/29 09:44:26;;;;;;;4.28;3.97;;;;;;;;;;5056507;28;20404;-81
2023/11/29 09:46:53;;;;;;;4.20;3.90;;;;;;;;;;5055757;28;20496;-81
2023/11/29 09:49:19;;;;;;;4.30;4.00;;;;;;;;;;5056502;28;20435;-81
2023/11/29 09:51:46;;;;;;;4.30;4.00;;;;;;;;;;5079348;28;20396;-81
2023/11/29 09:54:12;;;;;;;4.85;4.45;;;;;;;;;;5079675;28;20879;-81
2023/11/29 09:56:38;;;;;;;4.13;3.83;;;;;;;;;;5080071;28;20462;-81
2023/11/29 09:59:04;;;;;;;4.47;4.10;;;;;;;;;;5079478;28;20411;-81
2023/11/29 10:01:36;;;;;;;4.45;4.15;;;;;;;;;;5079647;28;20383;-81
2023/11/29 10:04:08;;;;;;;3.88;3.63;;;;;;;;;;5080457;28;20464;-81
2023/11/29 10:06:34;;;;;;;4.17;3.87;;;;;;;;;;5081428;28;20499;-81
2023/11/29 10:09:05;;;;;;;4.30;4.00;;;;;;;;;;5081410;28;20382;-81
2023/11/29 10:11:31;;;;;;;3.93;3.63;;;;;;;;;;5081885;28;20431;-82
2023/11/29 10:13:57;;;;;;;3.50;3.20;;;;;;;;;;5081957;28;20380;-81
2023/11/29 10:16:23;;;;;;;4.00;3.70;;;;;;;;;;5081595;28;20380;-81
2023/11/29 10:18:49;;;;;;;3.80;3.50;;;;;;;;;;5082190;28;20397;-81
2023/11/29 10:21:15;;;;;;;3.70;3.40;;;;;;;;;;5081635;28;20375;-81
2023/11/29 10:23:44;;;;;;;4.13;3.83;;;;;;;;;;5081709;28;20390;-81
2023/11/29 10:26:10;;;;;;;4.00;3.60;;;;;;;;;;5081479;28;20917;-81
2023/11/29 10:28:37;;;;;;;3.92;3.60;;;;;;;;;;5082593;28;20384;-81
2023/11/29 10:31:04;;;;;;;3.90;3.60;;;;;;;;;;5082609;28;20469;-81
2023/11/29 10:33:31;;;;;;;3.95;3.65;;;;;;;;;;5082443;28;20659;-81
2023/11/29 10:35:59;;;;;;;3.80;3.50;;;;;;;;;;5081756;28;20387;-81
2023/11/29 10:38:26;;;;;;;3.80;3.50;;;;;;;;;;5081602;28;20725;-81
2023/11/29 10:40:53;;;;;;;3.97;3.67;;;;;;;;;;5081718;28;20865;-82
2023/11/29 10:43:22;;;;;;;3.70;3.38;;;;;;;;;;5079042;28;20379;-81
2023/11/29 10:45:52;;;;;;;4.35;3.55;;;;;;;;;;5085190;28;20386;-82
2023/11/29 10:48:23;;;;;;;4.10;3.80;;;;;;;;;;5084518;28;20383;-82
2023/11/29 10:50:49;;;;;;;3.57;3.37;;;;;;;;;;5078269;28;20410;-81
2023/11/29 10:53:16;;;;;;;4.20;3.60;;;;;;;;;;5079582;28;20364;-81
2023/11/29 10:55:43;;;;;;;4.00;3.60;;;;;;;;;;5090699;28;20440;-82
2023/11/29 10:58:11;;;;;;;3.72;3.42;;;;;;;;;;5059963;28;20841;-82
2023/11/29 11:00:38;;;;;;;4.00;3.70;;;;;;;;;;5080394;28;20991;-81
2023/11/29 11:03:04;;;;;;;4.28;3.88;;;;;;;;;;5087452;28;20391;-81
2023/11/29 11:05:30;;;;;;;3.70;3.40;;;;;;;;;;5077067;28;20383;-82
2023/11/29 11:07:56;;;;;;;3.67;3.38;;;;;;;;;;5096361;28;20382;-82
2023/11/29 11:10:23;;;;;;;3.70;3.45;;;;;;;;;;5097775;28;20473;-82
2023/11/29 11:12:50;;;;;;;4.07;3.67;;;;;;;;;;5089764;28;20433;-81
2023/11/29 11:15:24;;;;;;;4.20;3.80;;;;;;;;;;5077362;28;20376;-81
2023/11/29 11:18:02;;;;;;;4.28;3.90;;;;;;;;;;5077153;28;20386;-81
2023/11/29 11:20:41;;;;;;;3.65;3.35;;;;;;;;;;5077161;28;20384;-81
2023/11/29 11:23:07;;;;;;;3.55;3.30;;;;;;;;;;5096646;28;20459;-81
2023/11/29 11:25:35;;;;;;;3.75;3.45;;;;;;;;;;5079404;28;20385;-80
2023/11/29 11:28:03;;;;;;;4.00;3.70;;;;;;;;;;5085450;28;20433;-81
2023/11/29 11:30:29;;;;;;;4.20;3.90;;;;;;;;;;5077370;28;20797;-80
2023/11/29 11:32:56;;;;;;;3.63;3.40;;;;;;;;;;5094998;28;20394;-80
2023/11/29 11:35:27;;;;;;;4.10;3.80;;;;;;;;;;5097138;28;20863;-80
2023/11/29 11:37:54;;;;;;;3.75;3.40;;;;;;;;;;5084248;28;20386;-81
2023/11/29 11:40:20;;;;;;;3.42;3.20;;;;;;;;;;5078605;28;20417;-80
2023/11/29 11:42:47;;;;;;;3.90;3.50;;;;;;;;;;5094892;28;20388;-80
2023/11/29 11:45:13;;;;;;;3.72;3.42;;;;;;;;;;5097066;28;20381;-81
2023/11/29 11:47:42;;;;;;;3.83;3.47;;;;;;;;;;5088562;28;20411;-80
2023/11/29 11:50:09;;;;;;;3.42;3.22;;;;;;;;;;5076354;28;20400;-80
2023/11/29 11:52:36;;;;;;;3.50;3.20;;;;;;;;;;5076301;28;20491;-81
2023/11/29 11:55:12;;;;;;;4.10;3.70;;;;;;;;;;5076275;28;20372;-80
2023/11/29 11:57:43;;;;;;;3.35;3.10;;;;;;;;;;5076566;28;20387;-80
2023/11/29 12:00:09;;;;;;;3.42;3.22;;;;;;;;;;5075142;28;20390;-80
2023/11/29 12:02:36;;;;;;;3.22;3.03;;;;;;;;;;5076343;28;20380;-80
2023/11/29 12:05:05;;;;;;;3.17;2.97;;;;;;;;;;5075744;28;20421;-80
2023/11/29 12:07:32;;;;;;;3.80;3.50;;;;;;;;;;5076490;28;20448;-80
2023/11/29 12:09:58;;;;;;;4.30;3.08;;;;;;;;;;5076261;28;20450;-80
2023/11/29 12:12:28;;;;;;;3.70;3.40;;;;;;;;;;5076168;28;20942;-80
2023/11/29 12:14:55;;;;;;;3.30;2.90;;;;;;;;;;5076314;28;20936;-80
2023/11/29 12:17:21;;;;;;;3.88;3.47;;;;;;;;;;5075638;28;20380;-80
2023/11/29 12:19:48;;;;;;;3.25;3.05;;;;;;;;;;5075982;28;20483;-80
2023/11/29 12:22:14;;;;;;;3.55;3.25;;;;;;;;;;5074971;28;20379;-80
2023/11/29 12:24:40;;;;;;;3.38;3.08;;;;;;;;;;5075561;28;20395;-80
2023/11/29 12:27:07;;;;;;;3.50;3.20;;;;;;;;;;5076096;28;20375;-82
2023/11/29 12:29:37;;;;;;;3.55;3.25;;;;;;;;;;5076142;28;20414;-78
2023/11/29 12:32:05;;;;;;;4.72;2.80;;;;;;;;;;5075642;28;20420;-75
2023/11/29 12:34:31;;;;;;;5.75;3.58;;;;;;;;;;5073943;28;20408;-80
2023/11/29 12:36:57;;;;;;;3.60;3.30;;;;;;;;;;5076025;28;20375;-80
2023/11/29 12:39:33;;;;;;;3.75;3.40;;;;;;;;;;5075565;28;20460;-81
2023/11/29 12:41:59;;;;;;;3.80;3.50;;;;;;;;;;5059201;28;20444;-80
2023/11/29 12:44:25;;;;;;;3.70;3.30;;;;;;;;;;5076436;28;20392;-81
2023/11/29 12:46:51;;;;;;;3.05;2.80;;;;;;;;;;5076153;28;20414;-80
2023/11/29 12:49:17;;;;;;;4.70;3.00;;;;;;;;;;5075991;28;20384;-81
2023/11/29 12:51:44;;;;;;;3.47;3.20;;;;;;;;;;5076896;28;20383;-80
2023/11/29 12:54:11;;;;;;;3.30;3.00;;;;;;;;;;5058246;28;20451;-81
2023/11/29 12:56:38;;;;;;;3.55;3.25;;;;;;;;;;5076631;28;20713;-81
2023/11/29 12:59:04;;;;;;;3.20;3.00;;;;;;;;;;5075972;28;20489;-81
2023/11/29 13:01:32;;;;;;;3.35;3.05;;;;;;;;;;5058134;28;20380;-81
2023/11/29 13:03:58;;;;;;;4.60;3.40;;;;;;;;;;5076261;28;20387;-81
2023/11/29 13:06:25;;;;;;;3.90;3.30;;;;;;;;;;5071336;28;20869;-80
2023/11/29 13:08:51;;;;;;;3.90;3.20;;;;;;;;;;5057463;28;20392;-81
2023/11/29 13:11:17;;;;;;;3.67;3.28;;;;;;;;;;5058175;28;20496;-81
2023/11/29 13:13:43;;;;;;;3.40;3.10;;;;;;;;;;5056714;28;20416;-82
2023/11/29 13:16:11;;;;;;;3.70;3.40;;;;;;;;;;5058803;28;20773;-82
2023/11/29 13:18:37;;;;;;;3.50;3.20;;;;;;;;;;5056201;28;20435;-83
2023/11/29 13:21:04;;;;;;;3.50;3.20;;;;;;;;;;5056220;28;20384;-81
2023/11/29 13:23:30;;;;;;;3.42;3.13;;;;;;;;;;5055530;28;20481;-81
2023/11/29 13:25:56;;;;;;;3.75;3.45;;;;;;;;;;5055462;28;20713;-81
2023/11/29 13:28:22;;;;;;;3.72;3.03;;;;;;;;;;5055420;28;20382;-81
2023/11/29 13:30:48;;;;;;;3.30;3.10;;;;;;;;;;5055594;28;20437;-81
2023/11/29 13:33:14;;;;;;;3.30;3.00;;;;;;;;;;5055631;28;20381;-81
2023/11/29 13:35:40;;;;;;;3.30;2.67;;;;;;;;;;5055631;28;20440;-80
2023/11/29 13:38:06;;;;;;;3.10;2.80;;;;;;;;;;5055419;28;20381;-81
2023/11/29 13:40:32;;;;;;;3.33;2.97;;;;;;;;;;5054637;28;20385;-81
2023/11/29 13:42:58;;;;;;;2.90;2.70;;;;;;;;;;5056184;28;20386;-82
2023/11/29 13:45:24;;;;;;;3.00;2.80;;;;;;;;;;5056476;28;20378;-81
2023/11/29 13:47:50;;;;;;;3.10;2.75;;;;;;;;;;5055215;28;20416;-81
2023/11/29 13:50:16;;;;;;;3.08;2.83;;;;;;;;;;5055519;28;20480;-81
2023/11/29 13:52:42;;;;;;;3.35;2.70;;;;;;;;;;5075430;28;20379;-82
2023/11/29 13:55:08;;;;;;;3.38;3.05;;;;;;;;;;5076019;28;20380;-80
2023/11/29 13:57:35;;;;;;;3.65;3.35;;;;;;;;;;5075842;28;20845;-82
2023/11/29 14:00:01;;;;;;;3.30;3.00;;;;;;;;;;5075694;28;20983;-81
2023/11/29 14:02:27;;;;;;;3.30;3.00;;;;;;;;;;5075723;28;20386;-81
2023/11/29 14:04:54;;;;;;;3.25;2.95;;;;;;;;;;5075532;28;20391;-81
2023/11/29 14:07:21;;;;;;;3.35;2.97;;;;;;;;;;5075713;28;20375;-81
2023/11/29 14:09:47;;;;;;;3.05;2.85;;;;;;;;;;5075492;28;20487;-81
2023/11/29 14:12:13;;;;;;;3.17;2.88;;;;;;;;;;5075504;28;20386;-81
2023/11/29 14:14:40;;;;;;;3.20;2.83;;;;;;;;;;5075398;28;20411;-81
2023/11/29 14:17:07;;;;;;;3.50;2.77;;;;;;;;;;5075859;28;20447;-81
2023/11/29 14:19:33;;;;;;;3.70;3.13;;;;;;;;;;5075553;28;20387;-81
2023/11/29 14:21:59;;;;;;;3.70;2.63;;;;;;;;;;5075552;28;20394;-81
2023/11/29 14:24:25;;;;;;;4.10;2.90;;;;;;;;;;5075849;28;20984;-81
2023/11/29 14:26:52;;;;;;;2.78;2.47;;;;;;;;;;5075698;28;20390;-81
2023/11/29 14:29:17;;;;;;;3.07;2.80;;;;;;;;;;5075462;28;20477;-81
2023/11/29 14:31:44;;;;;;;3.40;3.10;;;;;;;;;;5075191;28;20382;-81
2023/11/29 14:34:10;;;;;;;3.40;2.50;;;;;;;;;;5074420;28;20798;-81
2023/11/29 14:36:38;;;;;;;3.67;2.60;;;;;;;;;;5077435;28;20411;-81
2023/11/29 14:39:07;;;;;;;3.50;2.78;;;;;;;;;;5079111;28;20853;-81